Sun Valley, Nevada
Current Conditions -  °F | °C
As of 2:55 AM on Friday 24 Oct 2014 (Local Time) from KRNO Reporting Station
Clear Clear  
Wind Chill: 43°   Ceiling: Unl
Heat Index: 43°   Visibility: 10mi
Dew Point: 30°   Wind: 3mph
Humidity: 60%   Direction: 330°NNW
Pressure: 30.08"   Gusts: NA
Location:  39.59°N, 119.77°W
Report Text: KRNO 240955Z 33003KT 10SM CLR 06/M01 A3008 RMK AO2 SLP156 T00611011
Loading
Personal Weather Stations






























Interactive Weather Map
Tropical Storm Tracking
New forecast layout! Learn more

10-Day Weather Forecast

Advertisements
Track Severe Weather on mobile